createdAt,value
2022-10-18T00:00:06.172Z,4.57
2022-10-18T00:02:32.934Z,5.00
2022-10-18T00:04:59.601Z,4.65
2022-10-18T00:07:26.224Z,4.45
2022-10-18T00:09:52.936Z,3.97
2022-10-18T00:12:19.684Z,3.90
2022-10-18T00:14:50.113Z,3.80
2022-10-18T00:17:16.848Z,4.43
2022-10-18T00:19:43.801Z,3.97
2022-10-18T00:22:10.428Z,3.72
2022-10-18T00:24:37.165Z,3.85
2022-10-18T00:27:04.103Z,3.75
2022-10-18T00:29:30.719Z,4.05
2022-10-18T00:31:57.308Z,3.60
2022-10-18T00:34:23.943Z,3.63
2022-10-18T00:36:50.569Z,4.10
2022-10-18T00:39:20.951Z,3.67
2022-10-18T00:41:48.527Z,4.07
2022-10-18T00:44:15.091Z,3.85
2022-10-18T00:46:44.777Z,4.18
2022-10-18T00:49:19.142Z,4.28
2022-10-18T00:51:51.255Z,4.20
2022-10-18T00:54:20.852Z,4.40
2022-10-18T00:56:47.608Z,3.55
2022-10-18T00:59:16.394Z,3.47
2022-10-18T01:01:43.794Z,3.80
2022-10-18T01:04:12.257Z,3.88
2022-10-18T01:07:03.710Z,4.10
2022-10-18T01:09:36.405Z,3.70
2022-10-18T01:12:17.906Z,3.55
2022-10-18T01:14:58.427Z,3.78
2022-10-18T01:18:00.287Z,4.18
2022-10-18T01:20:55.337Z,3.95
2022-10-18T01:23:24.668Z,4.05
2022-10-18T01:26:28.467Z,4.10
2022-10-18T01:29:24.369Z,4.00
2022-10-18T01:31:59.540Z,4.80
2022-10-18T01:34:31.471Z,3.65
2022-10-18T01:37:01.172Z,4.65
2022-10-18T01:39:35.510Z,3.83
2022-10-18T01:42:08.202Z,3.88
2022-10-18T01:44:37.751Z,3.80
2022-10-18T01:47:07.796Z,4.00
2022-10-18T01:49:34.438Z,3.90
2022-10-18T01:52:01.227Z,4.25
2022-10-18T01:54:34.574Z,4.65
2022-10-18T01:57:04.053Z,4.10
2022-10-18T01:59:35.097Z,4.70
2022-10-18T02:02:19.684Z,3.88
2022-10-18T02:04:59.617Z,4.55
2022-10-18T02:07:55.431Z,4.43
2022-10-18T02:10:43.392Z,4.63
2022-10-18T02:13:17.267Z,5.22
2022-10-18T02:15:48.510Z,5.00
2022-10-18T02:18:20.607Z,5.00
2022-10-18T02:20:48.824Z,5.10
2022-10-18T02:23:20.058Z,5.55
2022-10-18T02:28:13.420Z,4.97
2022-10-18T02:31:03.251Z,4.50
2022-10-18T02:33:46.133Z,5.00
2022-10-18T02:36:18.590Z,4.30
2022-10-18T02:38:46.719Z,4.45
2022-10-18T02:41:22.665Z,4.45
2022-10-18T02:43:49.397Z,4.60
2022-10-18T02:46:16.282Z,4.05
2022-10-18T02:48:42.977Z,4.68
2022-10-18T02:51:09.535Z,5.10
2022-10-18T02:53:36.133Z,4.63
2022-10-18T02:56:03.306Z,4.70
2022-10-18T02:58:29.947Z,4.55
2022-10-18T03:00:56.535Z,4.63
2022-10-18T03:03:23.182Z,4.65
2022-10-18T03:05:50.671Z,4.75
2022-10-18T03:08:17.836Z,4.30
2022-10-18T03:10:45.739Z,4.35
2022-10-18T03:13:12.844Z,4.95
2022-10-18T03:15:39.873Z,4.38
2022-10-18T03:18:06.497Z,4.50
2022-10-18T03:20:34.129Z,4.57
2022-10-18T03:23:00.795Z,4.45
2022-10-18T03:25:27.411Z,4.47
2022-10-18T03:27:53.974Z,4.60
2022-10-18T03:30:20.559Z,4.50
2022-10-18T03:32:47.151Z,4.40
2022-10-18T03:35:13.801Z,4.32
2022-10-18T03:37:40.816Z,4.95
2022-10-18T03:40:08.213Z,4.88
2022-10-18T03:42:35.079Z,4.40
2022-10-18T03:45:01.873Z,4.30
2022-10-18T03:47:28.601Z,6.30
2022-10-18T03:49:57.199Z,4.45
2022-10-18T03:52:24.282Z,4.70
2022-10-18T03:54:50.989Z,4.25
2022-10-18T03:57:17.576Z,4.63
2022-10-18T03:59:44.139Z,4.85
2022-10-18T04:02:10.783Z,4.47
2022-10-18T04:04:37.454Z,4.60
2022-10-18T04:07:04.102Z,5.13
2022-10-18T04:09:30.720Z,5.00
2022-10-18T04:11:57.395Z,4.80
2022-10-18T04:14:24.048Z,4.93
2022-10-18T04:16:50.725Z,4.15
2022-10-18T04:19:17.463Z,4.45
2022-10-18T04:21:44.056Z,4.43
2022-10-18T04:24:10.687Z,4.30
2022-10-18T04:26:37.358Z,5.00
2022-10-18T04:29:04.323Z,4.75
2022-10-18T04:31:31.350Z,5.15
2022-10-18T04:33:57.964Z,5.25
2022-10-18T04:36:24.675Z,4.50
2022-10-18T04:38:51.320Z,4.55
2022-10-18T04:41:17.979Z,5.20
2022-10-18T04:46:12.235Z,4.85
2022-10-18T04:48:39.555Z,4.85
2022-10-18T04:51:06.264Z,4.80
2022-10-18T04:53:33.117Z,5.45
2022-10-18T04:55:59.901Z,5.45
2022-10-18T04:58:27.092Z,5.93
2022-10-18T05:00:53.685Z,8.18
2022-10-18T05:03:20.446Z,5.95
2022-10-18T05:06:01.457Z,5.20
2022-10-18T05:08:30.362Z,5.60
2022-10-18T05:10:57.160Z,5.35
2022-10-18T05:13:23.932Z,5.78
2022-10-18T05:15:50.771Z,5.43
2022-10-18T05:18:17.383Z,5.75
2022-10-18T05:20:44.263Z,6.22
2022-10-18T05:23:11.081Z,6.28
2022-10-18T05:25:39.566Z,5.45
2022-10-18T05:28:15.664Z,5.10
2022-10-18T05:30:52.972Z,5.72
2022-10-18T05:33:19.567Z,6.75
2022-10-18T05:35:46.292Z,6.47
2022-10-18T05:38:12.951Z,6.47
2022-10-18T05:40:39.785Z,5.75
2022-10-18T05:43:06.387Z,5.93
2022-10-18T05:45:33.087Z,6.03
2022-10-18T05:47:59.842Z,5.15
2022-10-18T05:50:26.435Z,5.75
2022-10-18T05:53:02.727Z,5.13
2022-10-18T05:55:39.336Z,5.82
2022-10-18T05:58:06.033Z,5.38
2022-10-18T06:00:32.679Z,6.28
2022-10-18T06:03:00.394Z,6.82
2022-10-18T06:05:27.659Z,6.75
2022-10-18T06:07:54.328Z,7.18
2022-10-18T06:10:21.064Z,7.20
2022-10-18T06:12:47.704Z,7.18
2022-10-18T06:15:14.479Z,6.30
2022-10-18T06:17:41.505Z,6.40
2022-10-18T06:20:08.756Z,6.45
2022-10-18T06:22:35.537Z,5.68
2022-10-18T06:25:02.299Z,6.15
2022-10-18T06:27:29.193Z,6.22
2022-10-18T06:29:55.932Z,6.40
2022-10-18T06:32:22.524Z,6.90
2022-10-18T06:34:49.157Z,6.95
2022-10-18T06:37:15.791Z,6.30
2022-10-18T06:39:42.413Z,6.35
2022-10-18T06:42:08.987Z,5.88
2022-10-18T06:44:35.614Z,6.50
2022-10-18T06:47:02.302Z,5.47
2022-10-18T06:49:28.981Z,5.40
2022-10-18T06:51:55.663Z,5.35
2022-10-18T06:54:22.435Z,5.13
2022-10-18T06:56:49.007Z,5.32
2022-10-18T06:59:15.887Z,6.03
2022-10-18T07:01:43.514Z,7.72
2022-10-18T07:04:10.261Z,6.53
2022-10-18T07:06:36.869Z,5.03
2022-10-18T07:09:03.948Z,5.22
2022-10-18T07:11:30.555Z,5.50
2022-10-18T07:14:04.941Z,5.85
2022-10-18T07:16:33.137Z,4.97
2022-10-18T07:18:59.773Z,5.07
2022-10-18T07:21:27.012Z,5.15
2022-10-18T07:23:53.822Z,4.95
2022-10-18T07:26:20.409Z,4.30
2022-10-18T07:28:49.922Z,4.10
2022-10-18T07:31:17.212Z,6.20
2022-10-18T07:33:43.961Z,4.30
2022-10-18T07:36:12.372Z,4.68
2022-10-18T07:38:39.788Z,4.75
2022-10-18T07:41:07.627Z,4.57
2022-10-18T07:43:35.631Z,4.93
2022-10-18T07:46:05.007Z,4.05
2022-10-18T07:48:32.057Z,4.38
2022-10-18T07:51:02.636Z,3.78
2022-10-18T07:53:30.074Z,4.50
2022-10-18T07:56:03.391Z,4.32
2022-10-18T07:58:33.816Z,3.78
2022-10-18T08:01:05.272Z,4.80
2022-10-18T08:03:32.051Z,4.25
2022-10-18T08:05:58.791Z,3.78
2022-10-18T08:08:26.796Z,4.35
2022-10-18T08:10:53.679Z,4.32
2022-10-18T08:13:21.018Z,5.07
2022-10-18T08:15:47.697Z,4.70
2022-10-18T08:18:14.412Z,5.00
2022-10-18T08:20:45.199Z,4.60
2022-10-18T08:23:11.872Z,4.53
2022-10-18T08:25:38.700Z,4.68
2022-10-18T08:28:05.600Z,7.13
2022-10-18T08:30:32.227Z,6.13
2022-10-18T08:32:58.902Z,4.38
2022-10-18T08:35:25.500Z,4.38
2022-10-18T08:37:52.129Z,5.85
2022-10-18T08:40:19.044Z,4.40
2022-10-18T08:42:48.818Z,4.20
2022-10-18T08:45:30.046Z,4.20
2022-10-18T08:48:05.511Z,4.68
2022-10-18T08:50:36.729Z,4.00
2022-10-18T08:53:49.216Z,4.55
2022-10-18T08:56:21.137Z,3.70
2022-10-18T08:58:47.752Z,4.65
2022-10-18T09:01:55.815Z,4.45
2022-10-18T09:04:44.272Z,4.53
2022-10-18T09:07:32.713Z,3.85
2022-10-18T09:10:27.240Z,3.70
2022-10-18T09:13:31.001Z,4.18
2022-10-18T09:16:02.892Z,3.92
2022-10-18T09:19:02.575Z,4.13
2022-10-18T09:21:43.848Z,4.05
2022-10-18T09:24:22.366Z,3.85
2022-10-18T09:26:53.909Z,4.10
2022-10-18T09:29:32.703Z,6.25
2022-10-18T09:32:17.744Z,3.63
2022-10-18T09:34:56.655Z,3.65
2022-10-18T09:37:27.176Z,3.88
2022-10-18T09:40:04.760Z,3.40
2022-10-18T09:42:44.680Z,3.53
2022-10-18T09:45:33.044Z,3.40
2022-10-18T09:48:03.750Z,3.40
2022-10-18T09:50:42.444Z,3.33
2022-10-18T09:53:28.223Z,3.50
2022-10-18T09:56:05.725Z,3.13
2022-10-18T09:58:44.357Z,3.50
2022-10-18T10:01:14.304Z,3.60
2022-10-18T10:03:42.525Z,3.40
2022-10-18T10:06:11.848Z,3.60
2022-10-18T10:08:43.925Z,3.33
2022-10-18T10:11:45.314Z,3.80
2022-10-18T10:16:56.635Z,3.45
2022-10-18T10:19:35.379Z,3.28
2022-10-18T10:22:13.146Z,2.97
2022-10-18T10:24:51.917Z,3.70
2022-10-18T10:27:41.051Z,3.60
2022-10-18T10:30:30.078Z,3.45
2022-10-18T10:32:57.604Z,3.53
2022-10-18T10:35:42.136Z,3.35
2022-10-18T10:38:28.843Z,3.30
2022-10-18T10:40:56.601Z,3.05
2022-10-18T10:43:37.663Z,3.63
2022-10-18T10:46:36.322Z,3.22
2022-10-18T10:49:35.103Z,3.25
2022-10-18T10:52:08.226Z,3.10
2022-10-18T10:54:38.983Z,3.50
2022-10-18T10:57:12.507Z,3.10
2022-10-18T10:59:45.665Z,3.80
2022-10-18T11:02:18.299Z,3.00
2022-10-18T11:04:50.570Z,3.60
2022-10-18T11:07:29.140Z,3.35
2022-10-18T11:10:10.725Z,3.78
2022-10-18T11:12:40.011Z,3.70
2022-10-18T11:15:18.198Z,3.80
2022-10-18T11:20:27.026Z,3.75
2022-10-18T11:23:00.814Z,3.40
2022-10-18T11:25:41.832Z,3.00
2022-10-18T11:28:25.717Z,2.85
2022-10-18T11:31:12.037Z,3.28
2022-10-18T11:34:07.004Z,3.42
2022-10-18T11:37:22.905Z,2.83
2022-10-18T11:40:00.301Z,2.85
2022-10-18T11:42:47.759Z,3.33
2022-10-18T11:45:33.208Z,2.92
2022-10-18T11:48:12.324Z,3.15
2022-10-18T11:51:00.483Z,2.90
2022-10-18T11:53:36.983Z,2.63
2022-10-18T11:56:29.594Z,3.08
2022-10-18T11:59:02.041Z,2.50
2022-10-18T12:01:53.261Z,2.53
2022-10-18T12:06:52.155Z,2.75
2022-10-18T12:12:38.272Z,2.63
2022-10-18T12:15:13.787Z,3.15
2022-10-18T12:17:49.644Z,3.03
2022-10-18T12:20:34.968Z,2.88
2022-10-18T12:23:05.860Z,2.60
2022-10-18T12:25:43.007Z,3.10
2022-10-18T12:28:42.006Z,2.50
2022-10-18T12:31:14.455Z,2.65
2022-10-18T12:33:45.955Z,3.13
2022-10-18T12:36:22.862Z,3.17
2022-10-18T12:38:54.605Z,2.75
2022-10-18T12:41:32.030Z,2.33
2022-10-18T12:44:17.516Z,2.40
2022-10-18T12:46:52.251Z,2.50
2022-10-18T12:49:29.053Z,2.33
2022-10-18T12:52:08.330Z,2.60
2022-10-18T12:54:38.407Z,2.15
2022-10-18T12:57:17.726Z,2.70
2022-10-18T12:59:44.412Z,2.67
2022-10-18T13:02:25.404Z,2.55
2022-10-18T13:07:30.921Z,2.65
2022-10-18T13:10:09.665Z,2.20
2022-10-18T13:12:49.712Z,2.70
2022-10-18T13:15:34.194Z,2.03
2022-10-18T13:18:16.801Z,2.40
2022-10-18T13:20:56.028Z,2.72
2022-10-18T13:23:37.822Z,2.67
2022-10-18T13:26:38.877Z,2.15
2022-10-18T13:29:26.760Z,2.67
2022-10-18T13:34:42.751Z,2.67
2022-10-18T13:37:10.217Z,2.85
2022-10-18T13:39:39.726Z,2.15
2022-10-18T13:42:15.573Z,2.40
2022-10-18T13:44:46.436Z,2.35
2022-10-18T13:49:39.616Z,2.50
2022-10-18T13:52:13.805Z,2.38
2022-10-18T13:54:49.269Z,2.40
2022-10-18T13:57:30.968Z,2.00
2022-10-18T14:00:28.350Z,2.28
2022-10-18T14:03:55.143Z,2.00
2022-10-18T14:06:27.126Z,2.13
2022-10-18T14:09:26.274Z,2.30
2022-10-18T14:12:28.963Z,2.20
2022-10-18T14:15:18.020Z,2.38
2022-10-18T14:17:49.249Z,2.08
2022-10-18T14:20:49.451Z,2.10
2022-10-18T14:23:26.908Z,2.05
2022-10-18T14:26:06.807Z,2.05
2022-10-18T14:28:55.307Z,1.55
2022-10-18T14:31:20.417Z,2.08
2022-10-18T14:33:57.305Z,1.88
2022-10-18T14:36:45.977Z,2.60
2022-10-18T14:39:22.507Z,2.00
2022-10-18T14:41:55.170Z,1.98
2022-10-18T14:44:29.943Z,1.77
2022-10-18T14:47:01.176Z,2.22
2022-10-18T14:49:27.984Z,2.35
2022-10-18T14:52:00.310Z,1.83
2022-10-18T14:54:33.674Z,2.33
2022-10-18T14:57:02.180Z,2.10
2022-10-18T14:59:32.797Z,2.85
2022-10-18T15:02:10.853Z,2.38
2022-10-18T15:04:37.488Z,1.92
2022-10-18T15:07:07.172Z,2.20
2022-10-18T15:09:36.813Z,2.97
2022-10-18T15:12:06.436Z,2.13
2022-10-18T15:14:34.736Z,2.10
2022-10-18T15:17:27.516Z,2.38
2022-10-18T15:20:03.406Z,2.17
2022-10-18T15:22:33.517Z,2.33
2022-10-18T15:25:29.334Z,2.53
2022-10-18T15:28:00.138Z,2.10
2022-10-18T15:30:47.043Z,2.10
2022-10-18T15:33:23.172Z,2.60
2022-10-18T15:35:52.116Z,2.05
2022-10-18T15:38:28.019Z,2.40
2022-10-18T15:40:55.031Z,2.75
2022-10-18T15:43:24.385Z,2.72
2022-10-18T15:46:00.039Z,2.50
2022-10-18T15:48:42.017Z,2.58
2022-10-18T15:51:32.612Z,2.88
2022-10-18T15:53:59.246Z,3.15
2022-10-18T15:56:27.800Z,2.92
2022-10-18T15:58:57.000Z,2.88
2022-10-18T16:01:32.532Z,2.40
2022-10-18T16:04:00.263Z,2.28
2022-10-18T16:06:26.899Z,2.95
2022-10-18T16:08:53.622Z,2.90
2022-10-18T16:11:25.273Z,2.60
2022-10-18T16:13:55.175Z,2.13
2022-10-18T16:16:27.249Z,2.55
2022-10-18T16:18:54.876Z,2.40
2022-10-18T16:21:25.804Z,2.38
2022-10-18T16:23:52.657Z,2.45
2022-10-18T16:26:20.150Z,2.38
2022-10-18T16:28:48.028Z,2.78
2022-10-18T16:31:22.939Z,2.88
2022-10-18T16:33:50.856Z,2.45
2022-10-18T16:36:23.041Z,2.60
2022-10-18T16:38:50.202Z,3.22
2022-10-18T16:41:17.191Z,2.42
2022-10-18T16:43:46.266Z,2.95
2022-10-18T16:46:16.748Z,2.75
2022-10-18T16:48:44.352Z,2.72
2022-10-18T16:51:11.728Z,2.80
2022-10-18T16:53:38.518Z,2.40
2022-10-18T16:56:12.049Z,2.90
2022-10-18T16:58:38.733Z,4.00
2022-10-18T17:01:08.121Z,3.17
2022-10-18T17:03:35.784Z,2.40
2022-10-18T17:06:02.704Z,2.90
2022-10-18T17:08:29.460Z,2.63
2022-10-18T17:10:58.191Z,2.40
2022-10-18T17:13:26.335Z,2.88
2022-10-18T17:15:53.691Z,2.95
2022-10-18T17:18:26.448Z,2.55
2022-10-18T17:20:53.553Z,3.42
2022-10-18T17:23:20.315Z,3.10
2022-10-18T17:25:59.074Z,2.80
2022-10-18T17:28:33.882Z,2.45
2022-10-18T17:31:00.809Z,2.75
2022-10-18T17:33:27.467Z,2.70
2022-10-18T17:35:54.136Z,2.60
2022-10-18T17:38:20.878Z,2.72
2022-10-18T17:40:47.713Z,3.20
2022-10-18T17:43:14.521Z,3.00
2022-10-18T17:45:55.687Z,3.00
2022-10-18T17:48:23.840Z,2.85
2022-10-18T17:50:50.694Z,3.03
2022-10-18T17:53:22.501Z,2.72
2022-10-18T17:55:49.456Z,3.60
2022-10-18T17:58:16.223Z,3.38
2022-10-18T18:00:43.026Z,3.47
2022-10-18T18:03:09.782Z,3.78
2022-10-18T18:05:36.487Z,3.35
2022-10-18T18:08:04.127Z,2.85
2022-10-18T18:10:34.677Z,3.30
2022-10-18T18:13:02.072Z,3.67
2022-10-18T18:15:28.782Z,3.30
2022-10-18T18:17:57.607Z,3.60
2022-10-18T18:20:25.594Z,3.40
2022-10-18T18:22:52.546Z,3.30
2022-10-18T18:25:19.361Z,3.58
2022-10-18T18:27:45.999Z,3.53
2022-10-18T18:30:12.903Z,3.65
2022-10-18T18:32:39.828Z,3.53
2022-10-18T18:35:06.745Z,3.15
2022-10-18T18:37:33.455Z,3.22
2022-10-18T18:40:00.131Z,4.10
2022-10-18T18:42:26.883Z,3.22
2022-10-18T18:44:53.453Z,3.72
2022-10-18T18:47:23.301Z,3.40
2022-10-18T18:49:51.444Z,3.85
2022-10-18T18:52:18.156Z,3.95
2022-10-18T18:54:45.032Z,3.55
2022-10-18T18:57:11.712Z,3.67
2022-10-18T18:59:38.535Z,4.05
2022-10-18T19:02:05.566Z,4.00
2022-10-18T19:04:32.924Z,3.90
2022-10-18T19:06:59.640Z,3.92
2022-10-18T19:09:27.386Z,3.85
2022-10-18T19:11:56.184Z,3.92
2022-10-18T19:14:25.145Z,3.95
2022-10-18T19:17:01.613Z,4.35
2022-10-18T19:19:30.216Z,3.58
2022-10-18T19:21:59.858Z,4.22
2022-10-18T19:24:28.761Z,4.47
2022-10-18T19:27:01.066Z,4.22
2022-10-18T19:29:36.407Z,3.90
2022-10-18T19:32:07.158Z,5.18
2022-10-18T19:34:34.973Z,4.47
2022-10-18T19:37:01.727Z,3.70
2022-10-18T19:39:34.189Z,4.15
2022-10-18T19:42:03.721Z,4.35
2022-10-18T19:44:32.844Z,4.78
2022-10-18T19:46:59.932Z,3.95
2022-10-18T19:49:28.581Z,4.25
2022-10-18T19:51:55.959Z,3.83
2022-10-18T19:54:23.066Z,3.75
2022-10-18T19:56:50.173Z,5.80
2022-10-18T19:59:17.713Z,6.40
2022-10-18T20:01:45.299Z,5.97
2022-10-18T20:04:13.072Z,6.55
2022-10-18T20:06:40.294Z,4.38
2022-10-18T20:09:09.043Z,4.45
2022-10-18T20:11:36.208Z,4.63
2022-10-18T20:14:03.184Z,4.43
2022-10-18T20:16:32.388Z,3.92
2022-10-18T20:19:04.644Z,3.90
2022-10-18T20:21:35.755Z,3.60
2022-10-18T20:24:05.482Z,3.90
2022-10-18T20:26:33.068Z,4.20
2022-10-18T20:28:59.995Z,5.03
2022-10-18T20:31:32.173Z,5.07
2022-10-18T20:34:02.659Z,5.07
2022-10-18T20:36:31.410Z,5.25
2022-10-18T20:38:58.704Z,4.82
2022-10-18T20:41:27.121Z,4.20
2022-10-18T20:43:55.938Z,5.38
2022-10-18T20:46:23.072Z,3.88
2022-10-18T20:48:50.903Z,4.47
2022-10-18T20:51:18.521Z,4.35
2022-10-18T20:53:45.494Z,4.03
2022-10-18T20:56:14.413Z,4.35
2022-10-18T20:58:43.444Z,4.72
2022-10-18T21:01:13.981Z,5.03
2022-10-18T21:03:43.088Z,4.35
2022-10-18T21:06:18.661Z,4.47
2022-10-18T21:08:46.313Z,4.30
2022-10-18T21:11:14.225Z,4.53
2022-10-18T21:13:41.021Z,5.07
2022-10-18T21:16:08.004Z,4.10
2022-10-18T21:18:36.060Z,4.30
2022-10-18T21:21:14.784Z,3.83
2022-10-18T21:23:42.936Z,4.40
2022-10-18T21:26:15.403Z,4.68
2022-10-18T21:28:42.182Z,4.32
2022-10-18T21:31:14.548Z,4.00
2022-10-18T21:33:42.074Z,4.30
2022-10-18T21:36:09.252Z,4.15
2022-10-18T21:38:36.054Z,4.32
2022-10-18T21:41:07.958Z,4.50
2022-10-18T21:43:34.625Z,4.38
2022-10-18T21:46:01.396Z,5.03
2022-10-18T21:48:28.198Z,4.35
2022-10-18T21:50:54.817Z,4.50
2022-10-18T21:53:21.899Z,5.10
2022-10-18T21:55:49.056Z,4.90
2022-10-18T21:58:15.688Z,4.65
2022-10-18T22:00:42.306Z,4.57
2022-10-18T22:03:13.536Z,4.82
2022-10-18T22:08:07.591Z,4.68
2022-10-18T22:10:34.294Z,4.32
2022-10-18T22:13:01.424Z,4.53
2022-10-18T22:15:28.057Z,4.35
2022-10-18T22:17:54.765Z,4.70
2022-10-18T22:20:21.382Z,5.28
2022-10-18T22:22:48.050Z,5.22
2022-10-18T22:25:14.839Z,4.50
2022-10-18T22:27:41.476Z,4.50
2022-10-18T22:30:08.584Z,4.50
2022-10-18T22:32:35.273Z,4.70
2022-10-18T22:35:02.398Z,4.70
2022-10-18T22:37:29.233Z,5.25
2022-10-18T22:39:56.135Z,4.65
2022-10-18T22:42:22.818Z,4.65
2022-10-18T22:44:49.388Z,4.10
2022-10-18T22:47:16.058Z,4.32
2022-10-18T22:49:42.695Z,4.20
2022-10-18T22:52:09.336Z,5.03
2022-10-18T22:54:38.652Z,4.18
2022-10-18T22:57:05.273Z,4.50
2022-10-18T22:59:31.857Z,4.10
2022-10-18T23:01:58.520Z,4.30
2022-10-18T23:04:25.218Z,4.53
2022-10-18T23:06:51.844Z,5.00
2022-10-18T23:09:18.458Z,5.13
2022-10-18T23:11:46.976Z,4.53
2022-10-18T23:14:13.688Z,4.43
2022-10-18T23:16:40.377Z,4.40
2022-10-18T23:19:07.112Z,4.30
2022-10-18T23:21:34.289Z,3.78
2022-10-18T23:24:01.320Z,4.20
2022-10-18T23:26:28.228Z,4.70
2022-10-18T23:28:55.255Z,4.47
2022-10-18T23:31:24.899Z,4.10
2022-10-18T23:33:53.687Z,4.40
2022-10-18T23:36:21.156Z,4.38
2022-10-18T23:38:48.206Z,4.60
2022-10-18T23:41:16.412Z,5.03
2022-10-18T23:43:43.643Z,4.72
2022-10-18T23:46:11.357Z,5.22
2022-10-18T23:48:38.480Z,6.10
2022-10-18T23:51:06.327Z,4.50
2022-10-18T23:53:33.697Z,4.68
2022-10-18T23:56:06.145Z,4.60
2022-10-18T23:58:34.859Z,5.35
